Time;durP1;ratioP1;P1;durP2;ratioP2;P2;SDS_P1;SDS_P2;PMS_P1;PMS_P2;Temp;Humidity;BMP_temperature;BMP_pressure;BME280_temperature;BME280_humidity;BME280_pressure;Samples;Min_cycle;Max_cycle;Signal;HPM_P1;HPM_P2
2023/12/22 00:01:54;;;;;;;7.50;1.48;;;24.30;99.90;;;;;;5071473;28;20196;-77
2023/12/22 00:04:24;;;;;;;7.57;1.35;;;24.40;99.90;;;;;;5071661;28;20199;-78
2023/12/22 00:06:55;;;;;;;7.82;1.60;;;24.20;99.90;;;;;;5071911;28;20200;-77
2023/12/22 00:09:28;;;;;;;6.50;1.30;;;24.20;99.90;;;;;;5070400;28;20192;-77
2023/12/22 00:11:59;;;;;;;6.82;1.40;;;24.20;99.90;;;;;;5070224;28;20196;-77
2023/12/22 00:14:29;;;;;;;6.82;1.58;;;24.10;99.90;;;;;;5069915;28;20226;-77
2023/12/22 00:17:00;;;;;;;7.05;1.38;;;24.20;99.90;;;;;;5071343;28;20204;-77
2023/12/22 00:19:31;;;;;;;4.25;1.40;;;24.20;99.90;;;;;;5071348;28;20234;-78
2023/12/22 00:22:03;;;;;;;6.70;1.27;;;24.20;99.90;;;;;;5071644;28;20196;-76
2023/12/22 00:24:36;;;;;;;7.70;1.40;;;24.30;99.90;;;;;;5070812;28;20203;-76
2023/12/22 00:27:07;;;;;;;6.82;1.25;;;24.20;99.90;;;;;;5051452;28;20280;-76
2023/12/22 00:29:37;;;;;;;6.35;1.52;;;24.10;99.90;;;;;;5051199;28;20267;-78
2023/12/22 00:32:09;;;;;;;8.48;1.70;;;23.90;99.90;;;;;;5051318;28;20266;-78
2023/12/22 00:34:41;;;;;;;6.43;1.30;;;24.00;99.90;;;;;;5050439;28;20577;-77
2023/12/22 00:37:12;;;;;;;5.38;1.27;;;24.10;99.90;;;;;;5069173;28;20259;-77
2023/12/22 00:39:47;;;;;;;9.23;1.73;;;24.20;99.90;;;;;;5067982;28;20198;-77
2023/12/22 00:42:18;;;;;;;4.50;1.40;;;24.30;99.90;;;;;;5071748;28;20279;-77
2023/12/22 00:44:47;;;;;;;6.35;1.30;;;24.30;99.90;;;;;;5069892;28;20200;-78
2023/12/22 00:47:18;;;;;;;5.03;1.33;;;24.30;99.90;;;;;;5071513;28;20303;-77
2023/12/22 00:49:49;;;;;;;6.45;1.13;;;24.30;99.90;;;;;;5071052;28;20195;-76
2023/12/22 00:52:19;;;;;;;8.70;1.48;;;24.30;99.90;;;;;;5070987;28;20200;-77
2023/12/22 00:54:52;;;;;;;4.85;1.45;;;24.40;99.90;;;;;;5071085;28;20269;-76
2023/12/22 00:57:23;;;;;;;4.18;1.25;;;24.40;99.90;;;;;;5070977;28;20196;-77
2023/12/22 00:59:54;;;;;;;6.25;1.10;;;24.40;99.90;;;;;;5069208;28;20559;-76
2023/12/22 01:02:25;;;;;;;5.28;1.40;;;24.50;99.90;;;;;;5061306;28;20196;-77
2023/12/22 01:04:55;;;;;;;8.90;1.15;;;24.40;99.90;;;;;;5052747;28;20203;-76
2023/12/22 01:07:26;;;;;;;5.07;1.30;;;24.40;99.90;;;;;;5052234;28;20736;-76
2023/12/22 01:10:01;;;;;;;4.07;1.27;;;24.40;99.90;;;;;;5063195;28;20192;-76
2023/12/22 01:12:32;;;;;;;5.60;1.08;;;24.40;99.90;;;;;;5071722;28;20290;-77
2023/12/22 01:15:03;;;;;;;4.63;1.08;;;24.50;99.90;;;;;;5072867;28;20224;-76
2023/12/22 01:17:34;;;;;;;5.18;1.23;;;24.40;99.90;;;;;;5071961;28;20199;-75
2023/12/22 01:20:05;;;;;;;5.78;1.13;;;24.30;99.90;;;;;;5052305;28;20729;-76
2023/12/22 01:22:38;;;;;;;3.53;0.93;;;24.40;99.90;;;;;;5050771;28;20199;-76
2023/12/22 01:25:11;;;;;;;6.25;1.15;;;24.40;99.90;;;;;;5050539;28;20205;-77
2023/12/22 01:27:42;;;;;;;4.40;1.13;;;24.30;99.90;;;;;;5064989;28;20203;-77
2023/12/22 01:30:13;;;;;;;3.33;1.30;;;24.20;99.90;;;;;;5070805;28;20200;-76
2023/12/22 01:32:43;;;;;;;5.32;1.23;;;24.30;99.90;;;;;;5069677;28;20191;-76
2023/12/22 01:35:14;;;;;;;4.30;1.15;;;24.30;99.90;;;;;;5070468;28;20235;-77
2023/12/22 01:37:47;;;;;;;5.10;1.00;;;24.40;99.90;;;;;;5070822;28;20234;-77
2023/12/22 01:40:21;;;;;;;3.97;1.02;;;24.50;99.90;;;;;;5071490;28;20195;-77
2023/12/22 01:42:52;;;;;;;6.60;1.38;;;24.60;99.90;;;;;;5070554;28;20279;-77
2023/12/22 01:45:23;;;;;;;4.07;1.00;;;24.60;99.90;;;;;;5069933;28;20279;-77
2023/12/22 01:47:54;;;;;;;3.72;1.35;;;24.70;99.90;;;;;;5069954;28;20573;-77
2023/12/22 01:50:25;;;;;;;4.40;1.10;;;24.70;98.90;;;;;;5050747;28;20220;-77
2023/12/22 01:52:56;;;;;;;5.97;1.20;;;24.70;98.20;;;;;;5050970;28;20717;-77
2023/12/22 01:55:29;;;;;;;4.00;1.23;;;24.70;98.90;;;;;;5062990;28;20223;-77
2023/12/22 01:58:01;;;;;;;7.35;1.27;;;24.70;97.10;;;;;;5070426;28;20204;-76
2023/12/22 02:00:32;;;;;;;3.08;0.90;;;24.80;96.80;;;;;;5070409;28;20204;-76
2023/12/22 02:03:03;;;;;;;4.97;1.02;;;24.70;96.30;;;;;;5070134;28;20633;-76
2023/12/22 02:05:33;;;;;;;3.33;0.95;;;24.90;97.20;;;;;;5068937;28;20203;-76
2023/12/22 02:08:04;;;;;;;2.72;1.25;;;24.70;96.90;;;;;;5070116;28;20192;-76
2023/12/22 02:10:37;;;;;;;3.40;1.20;;;24.80;96.20;;;;;;5070160;28;20705;-76
2023/12/22 02:13:09;;;;;;;4.80;1.20;;;24.80;96.40;;;;;;5069990;28;20195;-76
2023/12/22 02:15:40;;;;;;;5.68;0.93;;;24.90;96.40;;;;;;5070166;28;20224;-77
2023/12/22 02:18:16;;;;;;;4.82;1.42;;;24.90;96.40;;;;;;5070007;28;20203;-76
2023/12/22 02:20:48;;;;;;;8.57;1.70;;;25.00;98.10;;;;;;5070272;28;20226;-76
2023/12/22 02:23:20;;;;;;;8.60;1.60;;;25.10;97.10;;;;;;5069349;28;20199;-76
2023/12/22 02:25:55;;;;;;;4.07;1.08;;;25.10;96.20;;;;;;5070338;28;20286;-75
2023/12/22 02:28:28;;;;;;;6.40;1.15;;;25.20;96.80;;;;;;5067244;28;20195;-75
2023/12/22 02:31:04;;;;;;;5.97;0.88;;;25.10;95.20;;;;;;5070283;28;20197;-76
2023/12/22 02:33:36;;;;;;;6.22;1.08;;;25.10;95.90;;;;;;5072332;28;20196;-77
2023/12/22 02:36:09;;;;;;;5.38;0.95;;;25.10;94.80;;;;;;5073879;28;20238;-77
2023/12/22 02:38:42;;;;;;;7.70;1.48;;;24.90;95.90;;;;;;5054140;28;20196;-77
2023/12/22 02:41:13;;;;;;;3.13;0.90;;;24.90;96.20;;;;;;5061589;28;20218;-78
2023/12/22 02:43:44;;;;;;;3.67;1.00;;;24.90;96.40;;;;;;5050104;28;20219;-78
2023/12/22 02:46:18;;;;;;;4.85;1.10;;;24.90;95.50;;;;;;5049538;28;20667;-77
2023/12/22 02:48:49;;;;;;;7.43;1.27;;;24.90;96.00;;;;;;5050199;28;20201;-78
2023/12/22 02:51:19;;;;;;;3.88;1.10;;;24.90;95.00;;;;;;5052972;28;20287;-78
2023/12/22 02:53:52;;;;;;;3.50;0.98;;;24.90;95.40;;;;;;5070465;28;20290;-78
2023/12/22 02:56:23;;;;;;;3.42;0.93;;;24.90;95.40;;;;;;5069191;28;20326;-78
2023/12/22 02:58:54;;;;;;;2.75;1.08;;;24.90;95.40;;;;;;5073307;28;20196;-77
2023/12/22 03:01:24;;;;;;;3.70;1.00;;;25.00;95.30;;;;;;5073275;28;20207;-77
2023/12/22 03:03:55;;;;;;;4.25;1.05;;;25.10;94.10;;;;;;5073243;28;20651;-78
2023/12/22 03:06:26;;;;;;;2.70;0.88;;;25.10;94.10;;;;;;5073043;28;20575;-78
2023/12/22 03:08:59;;;;;;;5.20;1.33;;;25.20;95.10;;;;;;5072820;28;20571;-77
2023/12/22 03:11:29;;;;;;;4.10;1.08;;;25.20;95.00;;;;;;5073048;28;20196;-78
2023/12/22 03:14:00;;;;;;;4.18;0.93;;;25.30;95.50;;;;;;5071601;28;20196;-77
2023/12/22 03:16:31;;;;;;;4.68;1.17;;;25.30;96.10;;;;;;5072982;28;20314;-78
2023/12/22 03:19:02;;;;;;;4.32;1.00;;;25.30;95.90;;;;;;5072619;28;20302;-77
2023/12/22 03:21:32;;;;;;;2.53;0.95;;;25.40;94.40;;;;;;5072658;28;20236;-78
2023/12/22 03:24:05;;;;;;;5.38;1.30;;;25.40;94.20;;;;;;5072531;28;20202;-77
2023/12/22 03:26:36;;;;;;;4.68;1.08;;;25.30;94.70;;;;;;5072495;28;20290;-78
2023/12/22 03:29:07;;;;;;;2.30;0.80;;;25.30;93.70;;;;;;5071340;28;20673;-75
2023/12/22 03:31:38;;;;;;;7.47;1.35;;;25.30;93.30;;;;;;5073016;28;20199;-76
2023/12/22 03:34:08;;;;;;;4.63;1.00;;;25.40;92.20;;;;;;5072884;28;20238;-78
2023/12/22 03:36:39;;;;;;;6.47;1.00;;;25.50;92.80;;;;;;5072918;28;20335;-78
2023/12/22 03:39:12;;;;;;;4.72;1.08;;;25.60;92.10;;;;;;5072636;28;20231;-78
2023/12/22 03:41:43;;;;;;;2.83;0.80;;;25.50;92.00;;;;;;5072720;28;20214;-78
2023/12/22 03:44:13;;;;;;;5.00;1.45;;;25.60;91.70;;;;;;5073874;28;20203;-78
2023/12/22 03:46:44;;;;;;;5.75;1.30;;;25.60;90.10;;;;;;5079764;28;20271;-78
2023/12/22 03:49:15;;;;;;;4.45;1.30;;;25.60;90.30;;;;;;5077664;28;20200;-75
2023/12/22 03:51:45;;;;;;;3.35;1.10;;;25.70;89.60;;;;;;5074059;28;20188;-78
2023/12/22 03:54:18;;;;;;;3.25;0.88;;;25.80;90.10;;;;;;5072451;28;20192;-77
2023/12/22 03:56:49;;;;;;;3.20;0.90;;;25.80;89.40;;;;;;5072770;28;20200;-77
2023/12/22 03:59:20;;;;;;;5.00;1.23;;;25.80;86.60;;;;;;5072463;28;20281;-77
2023/12/22 04:01:55;;;;;;;4.30;1.30;;;25.80;86.30;;;;;;5071921;28;20196;-77
2023/12/22 04:04:27;;;;;;;2.97;1.00;;;25.70;87.10;;;;;;5072190;28;20199;-77
2023/12/22 04:06:58;;;;;;;4.65;1.02;;;25.60;86.30;;;;;;5072209;28;20706;-77
2023/12/22 04:09:31;;;;;;;3.25;0.77;;;25.50;88.70;;;;;;5071881;28;20191;-77
2023/12/22 04:12:02;;;;;;;3.38;1.10;;;25.50;90.00;;;;;;5072170;28;20593;-77
2023/12/22 04:14:32;;;;;;;4.43;1.45;;;25.50;90.20;;;;;;5071671;28;20238;-77
2023/12/22 04:17:03;;;;;;;4.22;0.95;;;25.60;90.50;;;;;;5066475;28;20575;-76
2023/12/22 04:19:34;;;;;;;5.05;1.10;;;25.60;90.40;;;;;;5071404;28;20216;-78
2023/12/22 04:22:05;;;;;;;3.20;0.88;;;25.70;90.00;;;;;;5071449;28;20200;-76
2023/12/22 04:24:37;;;;;;;3.13;1.10;;;25.60;89.60;;;;;;5071541;28;20200;-77
2023/12/22 04:27:08;;;;;;;5.57;0.80;;;25.60;89.70;;;;;;5071441;28;20726;-77
2023/12/22 04:29:39;;;;;;;5.20;1.02;;;25.70;89.30;;;;;;5067043;28;20192;-77
2023/12/22 04:32:10;;;;;;;6.95;1.30;;;25.70;90.40;;;;;;5070084;28;20206;-77
2023/12/22 04:34:40;;;;;;;4.57;1.02;;;25.60;91.50;;;;;;5066919;28;20196;-77
2023/12/22 04:37:11;;;;;;;3.70;1.10;;;25.70;91.90;;;;;;5070907;28;20239;-77
2023/12/22 04:39:44;;;;;;;3.40;0.75;;;25.70;91.90;;;;;;5070098;28;20196;-77
2023/12/22 04:42:15;;;;;;;7.82;1.20;;;25.80;92.60;;;;;;5069993;28;20206;-77
2023/12/22 04:44:45;;;;;;;2.92;1.13;;;25.80;92.40;;;;;;5067796;28;20199;-77
2023/12/22 04:47:18;;;;;;;6.15;1.50;;;25.90;92.80;;;;;;5068963;28;20188;-76
2023/12/22 04:49:49;;;;;;;5.15;1.13;;;26.00;93.00;;;;;;5072118;28;20231;-76
2023/12/22 04:52:20;;;;;;;4.47;1.13;;;26.10;91.70;;;;;;5072029;28;20315;-77
2023/12/22 04:54:52;;;;;;;4.75;1.35;;;26.10;92.80;;;;;;5071897;28;20196;-77
2023/12/22 04:57:24;;;;;;;5.50;1.38;;;26.20;92.90;;;;;;5071492;28;20196;-77
2023/12/22 04:59:54;;;;;;;4.70;1.20;;;26.30;93.70;;;;;;5071772;28;20240;-78
2023/12/22 05:02:25;;;;;;;7.50;1.20;;;26.30;94.10;;;;;;5072417;28;20199;-78
2023/12/22 05:04:56;;;;;;;6.13;1.27;;;26.30;94.00;;;;;;5074123;28;20219;-78
2023/12/22 05:07:27;;;;;;;5.97;1.33;;;26.40;93.90;;;;;;5070402;28;20279;-79
2023/12/22 05:10:00;;;;;;;5.68;1.15;;;26.50;94.50;;;;;;5070600;28;20188;-79
2023/12/22 05:12:31;;;;;;;6.30;1.40;;;26.60;95.50;;;;;;5071027;28;20643;-79
2023/12/22 05:15:01;;;;;;;5.95;1.48;;;26.60;95.40;;;;;;5070745;28;20654;-78
2023/12/22 05:17:32;;;;;;;4.45;0.90;;;26.70;95.60;;;;;;5070137;28;20223;-76
2023/12/22 05:20:03;;;;;;;5.40;1.30;;;26.80;94.30;;;;;;5055293;28;20215;-77
2023/12/22 05:22:34;;;;;;;6.95;1.33;;;26.80;94.70;;;;;;5070473;28;20192;-78
2023/12/22 05:25:08;;;;;;;3.85;1.30;;;26.90;93.80;;;;;;5067393;28;20287;-77
2023/12/22 05:27:42;;;;;;;3.47;1.05;;;26.90;93.30;;;;;;5050477;28;20232;-77
2023/12/22 05:30:14;;;;;;;5.32;1.40;;;26.90;93.60;;;;;;5066739;28;20279;-77
2023/12/22 05:32:45;;;;;;;6.00;1.25;;;26.90;93.90;;;;;;5073219;28;20622;-77
2023/12/22 05:35:16;;;;;;;4.63;1.38;;;27.00;92.50;;;;;;5072967;28;20737;-78
2023/12/22 05:37:47;;;;;;;5.55;1.30;;;27.20;93.00;;;;;;5070430;28;20652;-77
2023/12/22 05:40:20;;;;;;;6.10;1.55;;;27.40;92.40;;;;;;5070985;28;20279;-79
2023/12/22 05:42:51;;;;;;;4.38;1.27;;;27.40;91.50;;;;;;5070768;28;20208;-79
2023/12/22 05:45:22;;;;;;;9.20;1.40;;;27.60;90.90;;;;;;5070565;28;20660;-78
2023/12/22 05:47:53;;;;;;;6.95;1.20;;;27.80;90.20;;;;;;5070461;28;20306;-78
2023/12/22 05:50:23;;;;;;;3.75;0.80;;;27.80;90.70;;;;;;5068492;28;20286;-78
2023/12/22 05:52:54;;;;;;;5.82;1.33;;;28.10;89.00;;;;;;5070356;28;20206;-78
2023/12/22 05:55:27;;;;;;;6.05;1.10;;;28.30;86.10;;;;;;5070140;28;20769;-78
2023/12/22 05:57:58;;;;;;;5.13;1.30;;;28.40;88.30;;;;;;5069980;28;20279;-78
2023/12/22 06:00:28;;;;;;;4.00;1.13;;;28.80;86.90;;;;;;5068355;28;20639;-78
2023/12/22 06:02:59;;;;;;;6.15;1.33;;;29.20;88.00;;;;;;5069200;28;20287;-78
2023/12/22 06:05:30;;;;;;;3.80;1.25;;;29.60;87.00;;;;;;5066752;28;20192;-77
2023/12/22 06:08:01;;;;;;;4.15;1.17;;;29.70;85.10;;;;;;5061996;28;20235;-78
2023/12/22 06:10:34;;;;;;;2.67;1.00;;;29.70;83.50;;;;;;5069728;28;20206;-78
2023/12/22 06:13:05;;;;;;;4.50;1.30;;;29.70;84.10;;;;;;5069766;28;20200;-78
2023/12/22 06:15:36;;;;;;;6.18;1.48;;;29.60;82.10;;;;;;5070214;28;20311;-77
2023/12/22 06:18:07;;;;;;;5.10;1.48;;;29.60;82.30;;;;;;5070709;28;20230;-78
2023/12/22 06:20:38;;;;;;;5.28;1.42;;;29.50;82.60;;;;;;5070810;28;20708;-78
2023/12/22 06:23:09;;;;;;;4.50;1.27;;;29.40;81.40;;;;;;5070812;28;20566;-78
2023/12/22 06:25:41;;;;;;;5.70;1.20;;;29.20;83.00;;;;;;5070177;28;20206;-78
2023/12/22 06:28:12;;;;;;;6.10;1.48;;;29.40;83.20;;;;;;5068936;28;20198;-78
2023/12/22 06:30:43;;;;;;;4.35;1.38;;;29.40;83.90;;;;;;5061870;28;20195;-78
2023/12/22 06:33:14;;;;;;;5.50;1.23;;;29.50;83.80;;;;;;5062732;28;20208;-78
2023/12/22 06:35:45;;;;;;;4.68;1.50;;;29.60;84.70;;;;;;5082762;28;20765;-77
2023/12/22 06:38:16;;;;;;;5.57;1.30;;;29.70;86.40;;;;;;5072466;28;20199;-77
2023/12/22 06:40:48;;;;;;;6.63;1.23;;;30.00;84.40;;;;;;5055861;28;20288;-77
2023/12/22 06:43:19;;;;;;;5.55;1.20;;;30.40;81.40;;;;;;5053633;28;20203;-77
2023/12/22 06:45:51;;;;;;;4.43;1.20;;;30.60;80.70;;;;;;5054121;28;20698;-77
2023/12/22 06:48:22;;;;;;;5.35;1.08;;;30.90;77.70;;;;;;5069828;28;20192;-77
2023/12/22 06:50:53;;;;;;;6.78;1.30;;;31.10;76.50;;;;;;5073564;28;20887;-77
2023/12/22 06:53:24;;;;;;;5.28;1.30;;;31.50;75.60;;;;;;5073998;28;20299;-78
2023/12/22 06:55:56;;;;;;;4.88;1.27;;;31.70;74.60;;;;;;5072951;28;20310;-77
2023/12/22 06:58:27;;;;;;;5.03;1.13;;;31.70;70.40;;;;;;5072969;28;20286;-78
2023/12/22 07:00:58;;;;;;;3.15;1.33;;;31.60;70.70;;;;;;5073243;28;20203;-78
2023/12/22 07:03:29;;;;;;;3.20;0.88;;;31.70;71.90;;;;;;5073676;28;20196;-78
2023/12/22 07:06:00;;;;;;;5.90;1.20;;;31.70;69.10;;;;;;5073706;28;20292;-77
2023/12/22 07:08:30;;;;;;;4.13;1.05;;;31.70;65.10;;;;;;5074871;28;20206;-77
2023/12/22 07:11:03;;;;;;;7.53;1.83;;;31.40;67.30;;;;;;5073865;28;20279;-78
2023/12/22 07:13:34;;;;;;;5.47;1.58;;;31.30;69.20;;;;;;5072642;28;20188;-77
2023/12/22 07:16:05;;;;;;;5.53;1.10;;;31.50;68.20;;;;;;5080815;28;20218;-78
2023/12/22 07:18:35;;;;;;;4.70;1.50;;;31.40;64.30;;;;;;5071779;28;20200;-77
2023/12/22 07:21:07;;;;;;;3.17;1.02;;;31.20;65.90;;;;;;5073083;28;20199;-77
2023/12/22 07:23:37;;;;;;;6.35;1.30;;;31.40;65.50;;;;;;5072104;28;20203;-78
2023/12/22 07:26:10;;;;;;;6.72;1.90;;;31.50;67.40;;;;;;5072531;28;20196;-78
2023/12/22 07:28:41;;;;;;;2.15;0.90;;;31.60;66.00;;;;;;5071837;28;20191;-78
2023/12/22 07:31:12;;;;;;;8.88;1.30;;;31.70;63.80;;;;;;5052891;28;20196;-78
2023/12/22 07:33:43;;;;;;;5.57;1.20;;;31.30;64.50;;;;;;5053670;28;20196;-78
2023/12/22 07:36:14;;;;;;;4.07;1.23;;;31.50;65.10;;;;;;5070947;28;20232;-78
2023/12/22 07:38:45;;;;;;;2.08;0.80;;;31.80;64.60;;;;;;5072818;28;20199;-78
2023/12/22 07:41:18;;;;;;;8.35;1.27;;;31.90;64.00;;;;;;5072794;28;20210;-78
2023/12/22 07:43:48;;;;;;;6.32;1.42;;;31.90;63.50;;;;;;5071696;28;20192;-78
2023/12/22 07:46:23;;;;;;;3.85;1.20;;;32.10;63.20;;;;;;5072042;28;20192;-78
2023/12/22 07:48:54;;;;;;;3.13;1.10;;;31.90;65.00;;;;;;5070891;28;20199;-78
2023/12/22 07:51:25;;;;;;;4.10;1.35;;;31.70;66.00;;;;;;5072385;28;20196;-78
2023/12/22 07:53:56;;;;;;;7.47;1.50;;;31.60;64.50;;;;;;5064567;28;20200;-78
2023/12/22 07:56:29;;;;;;;4.03;1.50;;;31.10;66.20;;;;;;5070561;28;20220;-78
2023/12/22 07:59:02;;;;;;;4.60;1.40;;;31.10;66.80;;;;;;5064509;28;20196;-78
2023/12/22 08:01:33;;;;;;;4.63;1.50;;;30.80;66.90;;;;;;5054354;28;20205;-78
2023/12/22 08:04:05;;;;;;;4.50;1.65;;;30.30;69.60;;;;;;5071962;28;20196;-77
2023/12/22 08:06:36;;;;;;;4.88;1.63;;;29.80;71.80;;;;;;5071337;28;20204;-77
2023/12/22 08:09:07;;;;;;;3.88;1.20;;;29.40;73.80;;;;;;5070896;28;20203;-78
2023/12/22 08:11:40;;;;;;;4.47;1.42;;;28.90;75.50;;;;;;5071367;28;20200;-77
2023/12/22 08:14:12;;;;;;;5.85;1.30;;;28.40;77.10;;;;;;5071075;28;20554;-77
2023/12/22 08:16:44;;;;;;;5.22;1.25;;;28.00;79.80;;;;;;5071313;28;20224;-77
2023/12/22 08:19:15;;;;;;;5.78;1.42;;;27.50;82.50;;;;;;5071935;28;20243;-77
2023/12/22 08:21:47;;;;;;;5.47;1.40;;;27.20;86.10;;;;;;5071589;28;20203;-76
2023/12/22 08:24:19;;;;;;;6.88;1.48;;;26.80;89.80;;;;;;5071859;28;20200;-77
2023/12/22 08:26:52;;;;;;;6.47;1.60;;;26.50;91.60;;;;;;5070433;28;20628;-79
2023/12/22 08:29:23;;;;;;;8.15;1.60;;;26.10;93.80;;;;;;5071060;28;20287;-79
2023/12/22 08:31:55;;;;;;;5.82;1.42;;;25.90;95.20;;;;;;5072702;28;20277;-78
2023/12/22 08:34:26;;;;;;;5.13;1.45;;;25.60;96.50;;;;;;5074295;28;20627;-77
2023/12/22 08:36:57;;;;;;;7.47;1.80;;;25.40;98.40;;;;;;5074318;28;20251;-77
2023/12/22 08:39:28;;;;;;;4.95;1.77;;;25.30;99.90;;;;;;5076699;28;20200;-77
2023/12/22 08:42:01;;;;;;;5.03;1.30;;;25.10;99.90;;;;;;5051586;28;20201;-77
2023/12/22 08:44:33;;;;;;;6.22;1.52;;;25.00;99.90;;;;;;5058204;28;20203;-77
2023/12/22 08:47:04;;;;;;;4.90;1.52;;;24.90;99.90;;;;;;5071516;28;20206;-77
2023/12/22 08:49:35;;;;;;;6.78;1.80;;;24.80;99.90;;;;;;5072271;28;20693;-77
2023/12/22 08:52:06;;;;;;;5.18;1.45;;;24.80;99.90;;;;;;5072345;28;20205;-76
2023/12/22 08:54:37;;;;;;;5.00;1.20;;;24.70;99.90;;;;;;5070982;28;20206;-77
2023/12/22 08:57:12;;;;;;;6.80;1.50;;;24.70;99.90;;;;;;5070761;28;20223;-77
2023/12/22 08:59:43;;;;;;;4.80;1.40;;;24.70;99.90;;;;;;5070210;28;20195;-77
2023/12/22 09:02:14;;;;;;;6.13;1.40;;;24.60;99.90;;;;;;5067641;28;20218;-77
2023/12/22 09:04:45;;;;;;;6.35;1.33;;;24.50;99.90;;;;;;5060712;28;20242;-77
2023/12/22 09:07:16;;;;;;;6.72;1.40;;;24.50;99.90;;;;;;5070727;28;20210;-77
2023/12/22 09:09:47;;;;;;;6.93;1.55;;;24.40;99.90;;;;;;5060264;28;20203;-77
2023/12/22 09:12:20;;;;;;;6.03;1.77;;;24.30;99.90;;;;;;5070544;28;20650;-76
2023/12/22 09:14:53;;;;;;;7.03;1.52;;;24.30;99.90;;;;;;5070831;28;20196;-77
2023/12/22 09:17:24;;;;;;;6.07;1.70;;;24.20;99.90;;;;;;5050959;28;20224;-77
2023/12/22 09:19:55;;;;;;;8.77;1.92;;;24.20;99.90;;;;;;5058747;28;20641;-77
2023/12/22 09:22:26;;;;;;;9.50;1.70;;;24.20;99.90;;;;;;5065409;28;20196;-77
2023/12/22 09:24:57;;;;;;;6.00;1.52;;;24.10;99.90;;;;;;5064015;28;20204;-77
2023/12/22 09:27:30;;;;;;;8.82;1.40;;;24.10;99.90;;;;;;5070104;28;20184;-76
2023/12/22 09:30:02;;;;;;;6.97;1.60;;;24.00;99.90;;;;;;5068838;28;20219;-77
2023/12/22 09:32:34;;;;;;;6.80;1.92;;;24.00;99.90;;;;;;5070174;28;20203;-77
2023/12/22 09:35:05;;;;;;;5.38;1.55;;;23.90;99.90;;;;;;5069676;28;20207;-76
2023/12/22 09:37:36;;;;;;;5.45;1.85;;;23.90;99.90;;;;;;5068569;28;20587;-76
2023/12/22 09:40:09;;;;;;;7.65;2.08;;;23.80;99.90;;;;;;5068160;28;21590;-78
2023/12/22 09:42:46;;;;;;;7.22;2.20;;;23.70;99.90;;;;;;5062650;28;20187;-75
2023/12/22 09:45:18;;;;;;;6.50;1.85;;;23.70;99.90;;;;;;5068244;28;20279;-76
2023/12/22 09:47:51;;;;;;;9.88;1.85;;;23.70;99.90;;;;;;5070250;28;20552;-78
2023/12/22 09:50:22;;;;;;;7.40;2.30;;;23.70;99.90;;;;;;5067253;28;20685;-78
2023/12/22 09:52:53;;;;;;;7.50;1.90;;;23.70;99.90;;;;;;5073803;28;20199;-78
2023/12/22 09:55:26;;;;;;;5.13;1.67;;;23.60;99.90;;;;;;5074173;28;20545;-78
2023/12/22 09:58:00;;;;;;;7.55;1.67;;;23.60;99.90;;;;;;5069057;28;20224;-77
2023/12/22 10:00:34;;;;;;;5.38;1.40;;;23.60;99.90;;;;;;5059836;28;20206;-78
2023/12/22 10:03:05;;;;;;;8.40;1.73;;;23.60;99.90;;;;;;5072825;28;20216;-79
2023/12/22 10:05:37;;;;;;;7.93;2.00;;;23.60;99.90;;;;;;5064334;28;20204;-76
2023/12/22 10:08:10;;;;;;;7.13;1.98;;;23.60;99.90;;;;;;5075812;28;20219;-76
2023/12/22 10:10:43;;;;;;;5.70;1.90;;;23.50;99.90;;;;;;5074036;28;20231;-77
2023/12/22 10:13:16;;;;;;;5.47;1.42;;;23.50;99.90;;;;;;5071904;28;20295;-77
2023/12/22 10:15:48;;;;;;;7.40;1.60;;;23.40;99.90;;;;;;5073617;28;20226;-77
2023/12/22 10:18:20;;;;;;;7.45;1.88;;;23.40;99.90;;;;;;5073307;28;20227;-77
2023/12/22 10:20:51;;;;;;;9.95;1.77;;;23.40;99.90;;;;;;5071063;28;20203;-77
2023/12/22 10:23:22;;;;;;;6.32;1.50;;;23.40;99.90;;;;;;5073374;28;20560;-77
2023/12/22 10:25:54;;;;;;;8.10;1.60;;;23.30;99.90;;;;;;5074345;28;20207;-77
2023/12/22 10:28:29;;;;;;;6.97;1.70;;;23.40;99.90;;;;;;5073639;28;20192;-77
2023/12/22 10:31:06;;;;;;;9.00;2.00;;;23.30;99.90;;;;;;5069634;28;20198;-77
2023/12/22 10:33:37;;;;;;;8.40;1.60;;;23.40;99.90;;;;;;5073923;28;20196;-77
2023/12/22 10:36:11;;;;;;;6.43;1.73;;;23.30;99.90;;;;;;5073400;28;20307;-77
2023/12/22 10:38:44;;;;;;;8.05;1.85;;;23.20;99.90;;;;;;5072998;28;20218;-77
2023/12/22 10:41:16;;;;;;;12.05;1.90;;;23.20;99.90;;;;;;5073740;28;20199;-77
2023/12/22 10:43:49;;;;;;;9.43;1.50;;;23.30;99.90;;;;;;5073585;28;20196;-78
2023/12/22 10:46:21;;;;;;;9.00;1.70;;;23.20;99.90;;;;;;5074194;28;20196;-79
2023/12/22 10:48:55;;;;;;;9.63;1.73;;;23.20;99.90;;;;;;5073531;28;20204;-79
2023/12/22 10:51:32;;;;;;;8.98;1.70;;;23.20;99.90;;;;;;5064002;28;20564;-78
2023/12/22 10:54:03;;;;;;;6.25;1.38;;;23.20;99.90;;;;;;5054451;28;20200;-78
2023/12/22 10:56:34;;;;;;;8.18;1.60;;;23.30;99.90;;;;;;5056137;28;20193;-78
2023/12/22 10:59:08;;;;;;;6.63;1.40;;;23.20;99.90;;;;;;5072979;28;20235;-78
2023/12/22 11:01:40;;;;;;;4.32;1.40;;;23.30;99.90;;;;;;5073088;28;20646;-78
2023/12/22 11:04:12;;;;;;;6.30;1.63;;;23.30;99.90;;;;;;5071982;28;20650;-77
2023/12/22 11:06:44;;;;;;;7.78;1.48;;;23.30;99.90;;;;;;5071344;28;20196;-79
2023/12/22 11:09:17;;;;;;;7.28;1.65;;;23.20;99.90;;;;;;5073776;28;20203;-79
2023/12/22 11:11:50;;;;;;;8.23;1.80;;;23.20;99.90;;;;;;5073656;28;20207;-79
2023/12/22 11:14:24;;;;;;;7.85;1.55;;;23.20;99.90;;;;;;5079365;28;20197;-79
2023/12/22 11:16:56;;;;;;;5.60;1.27;;;23.10;99.90;;;;;;5088493;28;20260;-78
2023/12/22 11:19:29;;;;;;;10.85;1.60;;;23.10;99.90;;;;;;5091788;28;20180;-79
2023/12/22 11:22:03;;;;;;;8.35;1.63;;;23.10;99.90;;;;;;5094265;28;20199;-79
2023/12/22 11:24:36;;;;;;;8.93;1.58;;;23.00;99.90;;;;;;5081568;28;20196;-79
2023/12/22 11:27:08;;;;;;;8.15;1.98;;;23.00;99.90;;;;;;5073261;28;20210;-79
2023/12/22 11:29:44;;;;;;;6.78;1.30;;;23.00;99.90;;;;;;5073086;28;20196;-79
2023/12/22 11:32:17;;;;;;;8.50;1.50;;;22.90;99.90;;;;;;5070180;28;20200;-79
2023/12/22 11:34:49;;;;;;;4.85;1.30;;;22.90;99.90;;;;;;5053434;28;20612;-80
2023/12/22 11:37:20;;;;;;;8.50;1.70;;;22.90;99.90;;;;;;5018170;28;20232;-80
2023/12/22 11:39:52;;;;;;;5.00;1.45;;;22.90;99.90;;;;;;5029153;28;20243;-80
2023/12/22 11:42:27;;;;;;;8.02;1.75;;;22.90;99.90;;;;;;5033235;28;20732;-79
2023/12/22 11:45:01;;;;;;;5.07;1.35;;;22.90;99.90;;;;;;5033150;28;20607;-79
2023/12/22 11:47:33;;;;;;;11.00;1.83;;;22.90;99.90;;;;;;5032951;28;20193;-79
2023/12/22 11:50:04;;;;;;;6.90;1.60;;;22.90;99.90;;;;;;5032635;28;20229;-79
2023/12/22 11:52:35;;;;;;;6.20;1.33;;;22.90;99.90;;;;;;5033684;28;20656;-79
2023/12/22 11:55:06;;;;;;;5.28;1.27;;;22.80;99.90;;;;;;5032567;28;20656;-79
2023/12/22 11:57:39;;;;;;;8.07;1.30;;;22.80;99.90;;;;;;5019288;28;20294;-78
2023/12/22 12:00:42;;;;;;;8.10;1.50;;;22.80;99.90;;;;;;5032298;28;20193;-79
2023/12/22 12:03:14;;;;;;;7.22;1.52;;;22.70;99.90;;;;;;5033336;28;20243;-78
2023/12/22 12:05:46;;;;;;;5.57;1.40;;;22.70;99.90;;;;;;5028204;28;20236;-79
2023/12/22 12:08:17;;;;;;;5.97;1.25;;;22.70;99.90;;;;;;5027164;28;20296;-79
2023/12/22 12:10:58;;;;;;;6.45;2.03;;;22.70;99.90;;;;;;5033097;28;20323;-78
2023/12/22 12:13:31;;;;;;;4.45;1.15;;;22.70;99.90;;;;;;5031515;28;20280;-78
2023/12/22 12:16:05;;;;;;;3.08;1.00;;;22.80;99.90;;;;;;5033253;28;20236;-78
2023/12/22 12:18:37;;;;;;;6.07;1.20;;;22.80;99.90;;;;;;5032467;28;20569;-78
2023/12/22 12:21:10;;;;;;;5.85;1.40;;;22.80;99.90;;;;;;5031014;28;20647;-78
2023/12/22 12:23:43;;;;;;;7.03;1.42;;;22.70;99.90;;;;;;5030193;28;20652;-78
2023/12/22 12:26:15;;;;;;;7.13;1.63;;;22.70;99.90;;;;;;5028961;28;20199;-81
2023/12/22 12:28:49;;;;;;;7.28;1.50;;;22.70;99.90;;;;;;5032219;28;20201;-80
2023/12/22 12:31:37;;;;;;;5.20;1.50;;;22.80;99.90;;;;;;5047796;28;20243;-78
2023/12/22 12:34:08;;;;;;;5.88;1.55;;;22.80;99.90;;;;;;5048944;28;20209;-78
2023/12/22 12:36:39;;;;;;;5.90;1.27;;;22.80;99.90;;;;;;5076686;28;20342;-78
2023/12/22 12:39:11;;;;;;;7.32;1.48;;;22.80;99.90;;;;;;5070885;28;20261;-79
2023/12/22 12:41:45;;;;;;;5.95;1.40;;;22.80;99.90;;;;;;5066847;28;20295;-78
2023/12/22 12:44:17;;;;;;;5.75;1.27;;;22.80;99.90;;;;;;5067840;28;20234;-78
2023/12/22 12:46:50;;;;;;;7.75;1.65;;;22.80;99.90;;;;;;5069533;28;20218;-78
2023/12/22 12:49:21;;;;;;;6.80;2.50;;;22.70;99.90;;;;;;5069368;28;20213;-78
2023/12/22 12:51:52;;;;;;;6.85;2.58;;;22.70;99.90;;;;;;5071274;28;20199;-78
2023/12/22 12:54:23;;;;;;;5.13;1.70;;;22.70;99.90;;;;;;5071263;28;20672;-78
2023/12/22 12:56:54;;;;;;;7.80;1.92;;;22.70;99.90;;;;;;5071493;28;20188;-78
2023/12/22 12:59:25;;;;;;;5.22;1.38;;;22.70;99.90;;;;;;5071484;28;20306;-77
2023/12/22 13:02:01;;;;;;;9.32;1.95;;;22.70;99.90;;;;;;5070670;28;20199;-78
2023/12/22 13:04:41;;;;;;;5.05;1.58;;;22.70;99.90;;;;;;5070459;28;20251;-77
2023/12/22 13:07:12;;;;;;;6.47;1.35;;;22.70;99.90;;;;;;5052352;28;20678;-77
2023/12/22 13:09:46;;;;;;;4.45;1.25;;;22.80;99.90;;;;;;5069486;28;20203;-78